Latest Weather Observations for Hamilton

IDV60801

Issued at 5:31 pm EDT Wednesday 4 March 2015 (issued every 30 minutes, with the page automatically refreshed every 10 minutes)

About weather observations | Map of weather stations | Latest weather observations for VIC | Other Formats
Station Details ID: 090173 Name: HAMILTON AIRPORT Lat: -37.65 Lon: 142.06 Height: 241.1 m
Data from the previous 72 hours. | See also: Recent months at Hamilton
Date/Time
EDT
Temp
°C
App
Temp
°C
Dew
Point
Rel
Hum
%
Delta-T
°C
Wind Press
QNH
hPa
Press
MSL
hPa
Rain
since 9 am
mm
Dir
 
Spd
km/h
Gust
km/h
Spd
kts
Gust
kts
04/05:30pm 19.4 12.7 9.6 53 5.3 W 35 46 19 25 1012.4 1011.8 0.0
04/05:00pm 20.8 14.9 10.6 52 5.6 WNW 32 44 17 24 1012.5 1011.9 0.0
04/04:55pm 20.3 14.3 10.1 52 5.6 WNW 32 50 17 27 1012.5 1011.9 0.0
04/04:30pm 20.1 14.4 9.9 52 5.5 W 30 39 16 21 1012.8 1012.3 0.0
04/04:00pm 19.3 13.7 10.3 56 4.9 W 30 39 16 21 1013.3 1012.8 0.0
04/03:30pm 19.1 13.0 9.9 55 5.0 WNW 32 48 17 26 1013.7 1013.2 0.0
04/03:00pm 19.7 14.4 9.9 53 5.3 WNW 28 37 15 20 1014.1 1013.6 0.0
04/02:30pm 18.7 13.3 9.5 55 4.9 WNW 28 41 15 22 1014.2 1013.7 0.0
04/02:00pm 18.6 13.6 9.7 56 4.8 WNW 26 35 14 19 1014.6 1014.1 0.0
04/01:30pm 18.2 13.1 9.3 56 4.7 W 26 37 14 20 1014.9 1014.4 0.0
04/01:00pm 17.8 11.9 9.2 57 4.5 WNW 30 37 16 20 1015.3 1014.7 0.0
04/12:30pm 16.9 12.2 10.5 66 3.4 WNW 26 35 14 19 1016.1 1015.5 0.0
04/12:00pm 17.0 12.3 9.4 61 4.0 W 24 39 13 21 1016.1 1015.5 0.0
04/11:30am 16.4 11.4 9.6 64 3.6 W 26 35 14 19 1016.5 1016.0 0.0
04/11:00am 15.8 11.0 9.0 64 3.5 W 24 33 13 18 1016.7 1016.2 0.0
04/10:30am 15.6 11.6 9.1 65 3.4 W 20 35 11 19 1016.7 1016.2 0.0
04/10:00am 15.1 11.0 8.6 65 3.3 W 20 26 11 14 1016.6 1016.1 0.0
04/09:30am 14.6 11.9 9.0 69 2.9 WNW 13 17 7 9 1016.5 1016.0 0.0
04/09:00am 13.2 11.0 9.3 77 2.0 NW 11 15 6 8 1016.3 1015.8 0.0
04/08:30am 11.6 9.8 9.3 86 1.2 NW 9 11 5 6 1016.3 1015.8 0.0
04/08:00am 10.1 8.7 8.7 91 0.7 WNW 6 7 3 4 1016.1 1015.5 0.0
04/07:30am 9.8 7.8 8.6 92 0.6 NW 9 11 5 6 1015.9 1015.3 0.0
04/07:00am 9.3 6.9 8.5 95 0.4 NNW 11 13 6 7 1015.8 1015.2 0.0
04/06:30am 8.4 6.2 8.0 97 0.2 NNW 9 11 5 6 1015.7 1015.1 0.0
04/06:00am 6.8 4.2 6.2 96 0.3 NNW 9 11 5 6 1015.7 1015.1 0.0
04/05:30am 7.5 5.1 6.9 96 0.3 NNW 9 9 5 5 1015.9 1015.3 0.0
04/05:00am 7.3 4.8 6.7 96 0.3 NNW 9 9 5 5 1016.0 1015.4 0.0
04/04:30am 7.6 5.2 6.9 95 0.3 NW 9 9 5 5 1016.2 1015.7 0.0
04/04:00am 7.9 5.5 7.1 95 0.4 NNW 9 9 5 5 1016.3 1015.8 0.0
04/03:30am 8.1 5.7 7.2 94 0.4 NNW 9 9 5 5 1016.5 1016.0 0.0
04/03:00am 8.8 6.9 7.7 93 0.5 NW 7 9 4 5 1016.7 1016.2 0.0
04/02:30am 8.8 6.6 7.7 93 0.5 NNW 9 9 5 5 1016.9 1016.4 0.0
04/02:00am 8.6 6.2 7.2 91 0.7 NNW 9 11 5 6 1017.1 1016.6 0.0
04/01:30am 9.2 7.3 7.6 90 0.8 NNW 7 9 4 5 1017.2 1016.7 0.0
04/01:00am 9.6 7.7 7.5 87 1.0 NNW 7 7 4 4 1017.6 1017.1 0.0
04/12:30am 10.0 9.4 7.6 85 1.2 CALM 0 0 0 0 1017.7 1017.2 0.0
04/12:00am 10.6 9.9 6.9 78 1.8 CALM 0 0 0 0 1018.0 1017.5 0.0
 
Date/Time
EDT
Temp
°C
App
Temp
°C
Dew
Point
Rel
Hum
%
Delta-T
°C
Wind Press
QNH
hPa
Press
MSL
hPa
Rain
since 9 am
mm
Dir
 
Spd
km/h
Gust
km/h
Spd
kts
Gust
kts
03/11:30pm 11.6 10.1 8.5 81 1.6 S 6 9 3 5 1018.3 1017.8 0.0
03/11:00pm 11.4 9.3 8.1 80 1.6 S 9 13 5 7 1018.4 1017.9 0.0
03/10:30pm 11.4 8.9 8.3 81 1.5 S 11 13 6 7 1018.3 1017.8 0.0
03/10:00pm 12.4 9.6 8.5 77 2.0 SSE 13 17 7 9 1018.3 1017.8 0.0
03/09:30pm 13.4 10.3 8.9 74 2.3 S 15 19 8 10 1018.1 1017.6 0.0
03/09:00pm 14.8 11.0 9.2 69 2.9 SSE 19 24 10 13 1017.6 1017.1 0.0
03/08:30pm 15.7 12.0 9.6 67 3.2 S 19 24 10 13 1017.1 1016.6 0.0
03/08:00pm 17.3 12.7 9.7 61 4.0 S 24 28 13 15 1016.5 1016.0 0.0
03/07:30pm 19.6 15.8 9.8 53 5.3 SSW 20 24 11 13 1016.0 1015.4 0.0
03/07:00pm 21.0 16.8 9.6 48 6.2 S 22 28 12 15 1016.0 1015.4 0.0
03/06:30pm 22.2 18.9 9.4 44 7.0 SSW 17 24 9 13 1015.7 1015.1 0.0
03/06:00pm 22.9 19.2 7.8 38 8.0 SW 17 24 9 13 1015.7 1015.1 0.0
03/05:30pm 23.4 20.0 7.5 36 8.4 WSW 15 26 8 14 1015.7 1015.1 0.0
03/05:00pm 23.3 20.6 7.4 36 8.4 WSW 11 22 6 12 1015.7 1015.1 0.0
03/04:30pm 23.1 19.8 8.0 38 8.0 S 15 24 8 13 1015.8 1015.2 0.0
03/04:00pm 22.9 18.9 6.6 35 8.4 SSW 17 24 9 13 1016.3 1015.8 0.0
03/03:30pm 22.3 19.2 7.3 38 7.9 SSW 13 28 7 15 1016.6 1016.1 0.0
03/03:00pm 22.7 18.4 6.9 36 8.2 SSW 19 26 10 14 1017.0 1016.5 0.0
03/02:30pm 22.2 18.8 7.6 39 7.7 SSW 15 28 8 15 1017.1 1016.6 0.0
03/02:00pm 22.7 19.1 8.4 40 7.6 SW 17 26 9 14 1017.4 1016.9 0.0
03/01:30pm 21.7 18.7 7.9 41 7.3 SW 13 20 7 11 1017.8 1017.3 0.0
03/01:00pm 20.5 17.9 7.8 44 6.6 SW 11 24 6 13 1018.2 1017.7 0.0
03/12:30pm 19.6 16.6 7.7 46 6.2 S 13 22 7 12 1018.6 1018.1 0.0
03/12:00pm 19.1 16.4 7.2 46 6.1 SSE 11 20 6 11 1018.7 1018.2 0.0
03/11:30am 18.1 14.6 8.9 55 4.8 S 17 22 9 12 1018.8 1018.3 0.0
03/11:00am 17.1 14.0 9.0 59 4.2 S 15 20 8 11 1019.0 1018.5 0.0
03/10:30am 16.1 12.7 9.3 64 3.6 SE 17 20 9 11 1018.9 1018.4 0.0
03/10:00am 16.1 13.2 9.8 66 3.3 SE 15 20 8 11 1018.6 1018.1 0.0
03/09:30am 15.1 12.1 10.5 74 2.5 SSE 17 22 9 12 1018.6 1018.1 0.0
03/09:00am 13.6 11.3 10.6 82 1.6 SE 13 17 7 9 1018.3 1017.8 0.2
03/08:30am 12.1 10.5 10.2 88 1.0 ESE 9 11 5 6 1017.9 1017.4 0.2
03/08:00am 10.8 8.8 10.2 96 0.3 SE 11 13 6 7 1017.7 1017.2 0.2
03/07:30am 7.9 5.1 7.0 94 0.4 SE 11 13 6 7 1017.7 1017.2 0.2
03/07:00am 8.5 5.9 7.6 94 0.4 ESE 11 11 6 6 1017.1 1016.6 0.2
03/06:30am 9.0 6.4 7.8 92 0.6 SE 11 13 6 7 1016.6 1016.1 0.2
03/06:00am 9.3 6.7 7.9 91 0.7 SE 11 13 6 7 1016.5 1016.0 0.2
03/05:30am 9.6 7.4 7.9 89 0.8 SE 9 13 5 7 1016.4 1015.9 0.2
03/05:00am 10.4 8.4 8.5 88 0.9 SE 9 13 5 7 1016.3 1015.8 0.2
03/04:30am 10.3 7.8 8.4 88 0.9 SE 11 15 6 8 1016.2 1015.7 0.2
03/04:00am 10.6 8.4 8.0 84 1.3 SE 9 11 5 6 1016.3 1015.8 0.2
03/03:30am 10.6 8.4 7.7 82 1.4 SE 9 13 5 7 1016.4 1015.9 0.2
03/03:00am 11.5 9.7 8.0 79 1.7 SSE 7 9 4 5 1016.7 1016.2 0.2
03/02:30am 11.5 9.4 8.2 80 1.6 SSE 9 13 5 7 1016.9 1016.4 0.2
03/02:00am 12.2 9.8 8.5 78 1.9 SSE 11 13 6 7 1017.0 1016.5 0.2
03/01:30am 13.1 10.7 8.8 75 2.2 SSE 11 15 6 8 1017.1 1016.6 0.2
03/01:00am 13.2 11.4 8.1 71 2.6 SE 7 11 4 6 1017.2 1016.7 0.2
03/12:30am 13.3 11.5 8.0 70 2.7 SSE 7 9 4 5 1017.3 1016.8 0.2
03/12:00am 13.7 11.8 7.7 67 3.0 SSE 7 7 4 4 1017.4 1016.9 0.2
 
Date/Time
EDT
Temp
°C
App
Temp
°C
Dew
Point
Rel
Hum
%
Delta-T
°C
Wind Press
QNH
hPa
Press
MSL
hPa
Rain
since 9 am
mm
Dir
 
Spd
km/h
Gust
km/h
Spd
kts
Gust
kts
02/11:30pm 13.9 11.7 7.7 66 3.1 SSE 9 9 5 5 1017.2 1016.7 0.2
02/11:00pm 14.2 11.9 7.3 63 3.4 ESE 9 13 5 7 1016.8 1016.3 0.2
02/10:30pm 14.8 11.6 6.9 59 3.9 SE 13 17 7 9 1016.9 1016.4 0.2
02/10:00pm 14.9 11.7 7.0 59 3.9 SSE 13 17 7 9 1017.1 1016.6 0.2
02/09:30pm 15.1 12.2 6.7 57 4.1 SSE 11 15 6 8 1016.8 1016.3 0.2
02/09:00pm 15.3 11.7 6.6 56 4.3 SSE 15 20 8 11 1016.4 1015.9 0.2
02/08:30pm 15.7 12.1 6.7 55 4.5 SSE 15 20 8 11 1016.4 1015.9 0.2
02/08:00pm 16.5 12.5 6.6 52 4.9 SSE 17 22 9 12 1015.8 1015.2 0.2
02/07:30pm 17.9 13.4 7.0 49 5.5 S 20 28 11 15 1015.5 1014.9 0.2
02/07:00pm 18.6 13.4 7.4 48 5.7 S 24 32 13 17 1015.1 1014.6 0.2
02/06:30pm 20.1 15.1 8.1 46 6.3 SSW 24 33 13 18 1014.8 1014.3 0.2
02/06:00pm 22.5 17.5 4.5 31 9.0 S 20 26 11 14 1014.3 1013.8 0.2
02/05:30pm 23.1 18.1 4.6 30 9.3 SSW 20 28 11 15 1014.2 1013.7 0.2
02/05:00pm 24.0 20.0 4.9 29 9.7 WSW 15 24 8 13 1014.0 1013.5 0.2
02/04:30pm 24.5 21.2 4.3 27 10.1 WSW 11 19 6 10 1013.8 1013.3 0.2
02/04:00pm 24.4 21.5 4.7 28 10.0 SSE 9 17 5 9 1014.0 1013.5 0.2
02/03:30pm 24.5 20.5 4.8 28 10.0 WSW 15 22 8 12 1014.3 1013.8 0.2
02/03:00pm 24.0 19.9 4.4 28 9.8 SW 15 26 8 14 1014.7 1014.2 0.2
02/02:30pm 23.5 19.4 4.5 29 9.5 WSW 15 32 8 17 1015.3 1014.7 0.2
02/02:00pm 23.3 19.5 3.8 28 9.6 W 13 22 7 12 1015.6 1015.0 0.2
02/01:30pm 22.6 18.9 4.6 31 9.0 WNW 13 20 7 11 1015.9 1015.3 0.0
02/01:00pm 21.0 17.4 3.2 31 8.5 NNW 11 19 6 10 1016.3 1015.8 0.0
02/12:30pm 20.2 16.9 4.7 36 7.6 NNW 11 17 6 9 1017.2 1016.7 0.0
02/12:00pm 19.1 15.3 3.7 36 7.4 N 13 17 7 9 1017.5 1017.0 0.0
02/11:30am 19.4 15.2 1.9 31 8.1 N 13 19 7 10 1017.6 1017.1 0.0
02/11:00am 18.3 14.7 5.2 42 6.4 NE 13 17 7 9 1017.7 1017.2 0.0
02/10:30am 16.3 13.0 6.2 51 5.0 ENE 13 19 7 10 1017.7 1017.2 0.0
02/10:00am 14.4 10.8 6.7 60 3.8 ENE 15 17 8 9 1017.7 1017.2 0.0
02/09:30am 13.9 10.3 8.3 69 2.8 ENE 17 20 9 11 1017.9 1017.4 0.0
02/09:00am 11.4 8.2 8.3 81 1.5 E 15 19 8 10 1018.0 1017.5 0.0
02/08:30am 9.6 6.6 7.9 89 0.8 ESE 13 15 7 8 1018.1 1017.6 0.0
02/08:00am 7.7 4.4 6.5 92 0.6 ESE 13 15 7 8 1017.9 1017.4 0.0
02/07:30am 6.7 2.9 5.7 93 0.5 ESE 15 17 8 9 1017.7 1017.2 0.0
02/07:00am 6.0 2.0 5.0 93 0.4 ESE 15 17 8 9 1017.5 1017.0 0.0
02/06:30am 6.8 2.5 5.4 91 0.6 E 17 19 9 10 1017.3 1016.8 0.0
02/06:00am 6.8 3.0 5.6 92 0.5 ESE 15 17 8 9 1017.1 1016.6 0.0
02/05:30am 6.3 2.5 5.6 95 0.3 E 15 19 8 10 1016.9 1016.4 0.0
02/05:00am 5.1 1.4 4.4 95 0.3 ESE 13 15 7 8 1017.4 1016.9 0.0
02/04:30am 4.9 1.5 4.2 95 0.3 ESE 11 13 6 7 1017.7 1017.2 0.0
02/04:00am 5.2 1.9 4.3 94 0.4 ESE 11 13 6 7 1017.8 1017.3 0.0
02/03:30am 5.7 1.7 4.8 94 0.4 ESE 15 17 8 9 1017.9 1017.4 0.0
02/03:00am 6.3 2.4 5.4 94 0.4 ESE 15 17 8 9 1018.2 1017.7 0.0
02/02:30am 6.4 3.0 5.7 95 0.3 ESE 13 15 7 8 1018.6 1018.1 0.0
02/02:00am 6.3 3.5 5.3 93 0.4 ESE 9 11 5 6 1018.9 1018.4 0.0
02/01:30am 7.9 3.9 6.8 93 0.5 E 17 20 9 11 1018.6 1018.1 0.0
02/01:00am 7.3 4.3 6.1 92 0.5 ESE 11 11 6 6 1019.2 1018.7 0.0
02/12:30am 7.8 4.5 6.3 90 0.7 SE 13 15 7 8 1019.6 1019.0 0.0
02/12:00am 9.1 6.0 7.2 88 0.9 SE 13 17 7 9 1019.8 1019.3 0.0
 
Date/Time
EDT
Temp
°C
App
Temp
°C
Dew
Point
Rel
Hum
%
Delta-T
°C
Wind Press
QNH
hPa
Press
MSL
hPa
Rain
since 9 am
mm
Dir
 
Spd
km/h
Gust
km/h
Spd
kts
Gust
kts
01/11:30pm 8.9 6.1 6.9 87 0.9 SE 11 15 6 8 1019.9 1019.4 0.0
01/11:00pm 9.7 6.6 7.3 85 1.1 SE 13 17 7 9 1020.0 1019.5 0.0
01/10:30pm 10.8 7.1 7.9 82 1.4 SSE 17 20 9 11 1019.6 1019.0 0.0
01/10:00pm 11.1 7.0 7.8 80 1.6 SE 19 22 10 12 1018.9 1018.4 0.0
01/09:30pm 11.8 7.7 7.9 77 1.9 SSE 19 22 10 12 1018.9 1018.4 0.0
01/09:00pm 12.3 8.6 7.8 74 2.2 SE 17 20 9 11 1018.3 1017.8 0.0
01/08:30pm 13.4 9.6 7.6 68 2.9 SSE 17 24 9 13 1018.4 1017.9 0.0
01/08:00pm 14.5 10.3 7.5 63 3.5 SSE 19 22 10 12 1018.2 1017.7 0.0
01/07:30pm 15.7 11.7 8.2 61 3.8 SE 19 24 10 13 1017.8 1017.3 0.0
01/07:00pm 16.3 11.7 8.0 58 4.2 SE 22 30 12 16 1017.5 1017.0 0.0
01/06:30pm 17.1 12.2 8.5 57 4.5 SE 24 28 13 15 1017.3 1016.8 0.0
01/06:00pm 18.3 12.5 8.0 51 5.3 SE 28 35 15 19 1017.3 1016.8 0.0

Other Formats:

Comma delimited format used in spreadsheet applications
http://www.bom.gov.au/fwo/IDV60801/IDV60801.94829.axf

JavaScript Object Notation format (JSON) in row-major order
http://www.bom.gov.au/fwo/IDV60801/IDV60801.94829.json